sensor_id;sensor_type;location;lat;lon;timestamp;pressure;altitude;pressure_sealevel;temperature;humidity
75629;BME280;64213;46.452;16.994;2024-01-10T00:00:14;101522.81;;;-4.50;82.70
75629;BME280;64213;46.452;16.994;2024-01-10T00:03:16;101524.47;;;-4.52;83.19
75629;BME280;64213;46.452;16.994;2024-01-10T00:06:19;101524.34;;;-4.58;83.05
75629;BME280;64213;46.452;16.994;2024-01-10T00:09:21;101523.50;;;-4.57;83.10
75629;BME280;64213;46.452;16.994;2024-01-10T00:12:25;101523.56;;;-4.54;83.68
75629;BME280;64213;46.452;16.994;2024-01-10T00:15:27;101528.72;;;-4.54;83.29
75629;BME280;64213;46.452;16.994;2024-01-10T00:18:30;101525.31;;;-4.53;83.69
75629;BME280;64213;46.452;16.994;2024-01-10T00:21:33;101530.44;;;-4.54;83.11
75629;BME280;64213;46.452;16.994;2024-01-10T00:24:36;101539.13;;;-4.51;83.36
75629;BME280;64213;46.452;16.994;2024-01-10T00:27:39;101539.97;;;-4.52;83.78
75629;BME280;64213;46.452;16.994;2024-01-10T00:30:42;101539.13;;;-4.51;83.75
75629;BME280;64213;46.452;16.994;2024-01-10T00:33:44;101530.56;;;-4.50;84.48
75629;BME280;64213;46.452;16.994;2024-01-10T00:36:47;101533.00;;;-4.56;83.64
75629;BME280;64213;46.452;16.994;2024-01-10T00:39:49;101529.50;;;-4.58;84.61
75629;BME280;64213;46.452;16.994;2024-01-10T00:42:52;101526.94;;;-4.58;85.41
75629;BME280;64213;46.452;16.994;2024-01-10T00:45:58;101533.75;;;-4.60;85.08
75629;BME280;64213;46.452;16.994;2024-01-10T00:49:00;101532.81;;;-4.65;84.93
75629;BME280;64213;46.452;16.994;2024-01-10T00:52:03;101541.28;;;-4.69;84.99
75629;BME280;64213;46.452;16.994;2024-01-10T00:55:07;101535.97;;;-4.78;84.55
75629;BME280;64213;46.452;16.994;2024-01-10T00:58:10;101533.22;;;-4.84;84.87
75629;BME280;64213;46.452;16.994;2024-01-10T01:01:15;101502.34;;;-5.18;85.06
75629;BME280;64213;46.452;16.994;2024-01-10T01:04:18;101545.78;;;-5.00;85.84
75629;BME280;64213;46.452;16.994;2024-01-10T01:07:21;101553.38;;;-5.04;86.18
75629;BME280;64213;46.452;16.994;2024-01-10T01:10:24;101555.00;;;-5.09;86.50
75629;BME280;64213;46.452;16.994;2024-01-10T01:13:28;101554.00;;;-5.15;86.86
75629;BME280;64213;46.452;16.994;2024-01-10T01:16:31;101546.97;;;-5.20;87.86
75629;BME280;64213;46.452;16.994;2024-01-10T01:19:34;101553.13;;;-5.15;86.84
75629;BME280;64213;46.452;16.994;2024-01-10T01:22:37;101550.41;;;-5.21;87.23
75629;BME280;64213;46.452;16.994;2024-01-10T01:25:41;101546.88;;;-5.26;87.64
75629;BME280;64213;46.452;16.994;2024-01-10T01:28:44;101545.06;;;-5.29;87.82
75629;BME280;64213;46.452;16.994;2024-01-10T01:31:47;101541.63;;;-5.29;88.33
75629;BME280;64213;46.452;16.994;2024-01-10T01:34:50;101547.53;;;-5.33;87.63
75629;BME280;64213;46.452;16.994;2024-01-10T01:37:54;101541.47;;;-5.35;87.60
75629;BME280;64213;46.452;16.994;2024-01-10T01:40:57;101552.56;;;-5.38;87.98
75629;BME280;64213;46.452;16.994;2024-01-10T01:44:01;101544.69;;;-5.44;87.86
75629;BME280;64213;46.452;16.994;2024-01-10T01:47:05;101548.09;;;-5.45;87.94
75629;BME280;64213;46.452;16.994;2024-01-10T01:50:10;101538.53;;;-5.49;88.36
75629;BME280;64213;46.452;16.994;2024-01-10T01:53:15;101536.69;;;-5.55;88.31
75629;BME280;64213;46.452;16.994;2024-01-10T01:56:18;101542.63;;;-5.57;88.15
75629;BME280;64213;46.452;16.994;2024-01-10T01:59:23;101536.59;;;-5.58;88.12
75629;BME280;64213;46.452;16.994;2024-01-10T02:02:27;101531.47;;;-5.58;88.37
75629;BME280;64213;46.452;16.994;2024-01-10T02:05:30;101525.28;;;-5.63;88.95
75629;BME280;64213;46.452;16.994;2024-01-10T02:08:34;101530.38;;;-5.66;88.66
75629;BME280;64213;46.452;16.994;2024-01-10T02:11:37;101529.50;;;-5.67;88.48
75629;BME280;64213;46.452;16.994;2024-01-10T02:14:39;101526.94;;;-5.67;88.41
75629;BME280;64213;46.452;16.994;2024-01-10T02:17:42;101527.78;;;-5.66;89.00
75629;BME280;64213;46.452;16.994;2024-01-10T02:20:45;101526.88;;;-5.68;89.24
75629;BME280;64213;46.452;16.994;2024-01-10T02:23:48;101523.47;;;-5.67;89.79
75629;BME280;64213;46.452;16.994;2024-01-10T02:26:51;101524.28;;;-5.68;89.39
75629;BME280;64213;46.452;16.994;2024-01-10T02:29:54;101525.97;;;-5.70;89.33
75629;BME280;64213;46.452;16.994;2024-01-10T02:32:57;101526.88;;;-5.68;89.78
75629;BME280;64213;46.452;16.994;2024-01-10T02:36:00;101513.03;;;-5.72;89.76
75629;BME280;64213;46.452;16.994;2024-01-10T02:39:02;101517.31;;;-5.72;89.76
75629;BME280;64213;46.452;16.994;2024-01-10T02:42:05;101518.25;;;-5.70;89.84
75629;BME280;64213;46.452;16.994;2024-01-10T02:45:07;101522.56;;;-5.69;90.19
75629;BME280;64213;46.452;16.994;2024-01-10T02:48:10;101515.59;;;-5.73;90.22
75629;BME280;64213;46.452;16.994;2024-01-10T02:51:13;101513.81;;;-5.74;90.51
75629;BME280;64213;46.452;16.994;2024-01-10T02:54:16;101511.19;;;-5.77;91.14
75629;BME280;64213;46.452;16.994;2024-01-10T02:57:18;101517.00;;;-5.85;91.45
75629;BME280;64213;46.452;16.994;2024-01-10T03:00:21;101521.13;;;-5.93;91.16
75629;BME280;64213;46.452;16.994;2024-01-10T03:03:23;101518.31;;;-6.00;91.09
75629;BME280;64213;46.452;16.994;2024-01-10T03:06:26;101514.72;;;-6.07;92.10
75629;BME280;64213;46.452;16.994;2024-01-10T03:09:28;101519.66;;;-6.15;92.08
75629;BME280;64213;46.452;16.994;2024-01-10T03:12:30;101515.19;;;-6.22;92.59
75629;BME280;64213;46.452;16.994;2024-01-10T03:15:33;101524.56;;;-6.22;92.99
75629;BME280;64213;46.452;16.994;2024-01-10T03:18:36;101524.50;;;-6.25;93.02
75629;BME280;64213;46.452;16.994;2024-01-10T03:21:38;101522.75;;;-6.26;93.29
75629;BME280;64213;46.452;16.994;2024-01-10T03:24:40;101520.16;;;-6.28;93.03
75629;BME280;64213;46.452;16.994;2024-01-10T03:27:43;101528.66;;;-6.30;93.34
75629;BME280;64213;46.452;16.994;2024-01-10T03:30:46;101531.16;;;-6.32;94.13
75629;BME280;64213;46.452;16.994;2024-01-10T03:33:49;101532.78;;;-6.36;93.37
75629;BME280;64213;46.452;16.994;2024-01-10T03:36:52;101530.12;;;-6.39;93.53
75629;BME280;64213;46.452;16.994;2024-01-10T03:39:55;101529.41;;;-6.35;93.12
75629;BME280;64213;46.452;16.994;2024-01-10T03:42:57;101530.31;;;-6.33;93.16
75629;BME280;64213;46.452;16.994;2024-01-10T03:46:00;101525.06;;;-6.36;93.53
75629;BME280;64213;46.452;16.994;2024-01-10T03:49:03;101529.25;;;-6.39;93.85
75629;BME280;64213;46.452;16.994;2024-01-10T03:52:05;101524.00;;;-6.44;93.19
75629;BME280;64213;46.452;16.994;2024-01-10T03:55:08;101524.09;;;-6.41;93.50
75629;BME280;64213;46.452;16.994;2024-01-10T03:58:11;101521.44;;;-6.42;93.23
75629;BME280;64213;46.452;16.994;2024-01-10T04:01:13;101522.31;;;-6.42;93.54
75629;BME280;64213;46.452;16.994;2024-01-10T04:04:16;101517.12;;;-6.43;93.67
75629;BME280;64213;46.452;16.994;2024-01-10T04:07:18;101522.22;;;-6.45;94.35
75629;BME280;64213;46.452;16.994;2024-01-10T04:10:21;101529.84;;;-6.48;94.24
75629;BME280;64213;46.452;16.994;2024-01-10T04:13:41;101525.44;;;-6.53;94.19
75629;BME280;64213;46.452;16.994;2024-01-10T04:16:57;101530.50;;;-6.55;94.74
75629;BME280;64213;46.452;16.994;2024-01-10T04:20:00;101530.38;;;-6.60;95.11
75629;BME280;64213;46.452;16.994;2024-01-10T04:23:04;101530.22;;;-6.64;96.08
75629;BME280;64213;46.452;16.994;2024-01-10T04:26:10;101528.41;;;-6.68;96.09
75629;BME280;64213;46.452;16.994;2024-01-10T04:29:12;101529.16;;;-6.72;97.55
75629;BME280;64213;46.452;16.994;2024-01-10T04:32:15;101534.22;;;-6.74;98.10
75629;BME280;64213;46.452;16.994;2024-01-10T04:35:21;101528.09;;;-6.79;98.48
75629;BME280;64213;46.452;16.994;2024-01-10T04:38:24;101530.59;;;-6.81;99.39
75629;BME280;64213;46.452;16.994;2024-01-10T04:41:29;101536.28;;;-6.91;99.06
75629;BME280;64213;46.452;16.994;2024-01-10T04:44:32;101536.09;;;-6.97;99.44
75629;BME280;64213;46.452;16.994;2024-01-10T04:47:34;101536.19;;;-6.94;100.00
75629;BME280;64213;46.452;16.994;2024-01-10T04:50:38;101539.50;;;-6.98;99.80
75629;BME280;64213;46.452;16.994;2024-01-10T04:53:44;101541.81;;;-7.06;99.53
75629;BME280;64213;46.452;16.994;2024-01-10T04:56:49;101545.03;;;-7.13;99.65
75629;BME280;64213;46.452;16.994;2024-01-10T04:59:57;101542.53;;;-7.11;100.00
75629;BME280;64213;46.452;16.994;2024-01-10T05:03:00;101540.00;;;-7.10;100.00
75629;BME280;64213;46.452;16.994;2024-01-10T05:06:02;101546.00;;;-7.09;100.00
75629;BME280;64213;46.452;16.994;2024-01-10T05:09:05;101535.63;;;-7.12;100.00
75629;BME280;64213;46.452;16.994;2024-01-10T05:12:09;101542.44;;;-7.14;100.00
75629;BME280;64213;46.452;16.994;2024-01-10T05:15:12;101539.03;;;-7.13;100.00
75629;BME280;64213;46.452;16.994;2024-01-10T05:18:15;101540.75;;;-7.12;99.67
75629;BME280;64213;46.452;16.994;2024-01-10T05:21:19;101543.44;;;-7.09;100.00
75629;BME280;64213;46.452;16.994;2024-01-10T05:24:22;101544.25;;;-7.10;100.00
75629;BME280;64213;46.452;16.994;2024-01-10T05:27:27;101543.41;;;-7.11;100.00
75629;BME280;64213;46.452;16.994;2024-01-10T05:30:30;101545.91;;;-7.12;100.00
75629;BME280;64213;46.452;16.994;2024-01-10T05:33:34;101547.47;;;-7.17;100.00
75629;BME280;64213;46.452;16.994;2024-01-10T05:36:37;101555.97;;;-7.18;100.00
75629;BME280;64213;46.452;16.994;2024-01-10T05:39:43;101558.53;;;-7.20;100.00
75629;BME280;64213;46.452;16.994;2024-01-10T05:42:49;101555.09;;;-7.20;100.00
75629;BME280;64213;46.452;16.994;2024-01-10T05:45:51;101559.25;;;-7.24;100.00
75629;BME280;64213;46.452;16.994;2024-01-10T05:48:54;101553.19;;;-7.26;100.00
75629;BME280;64213;46.452;16.994;2024-01-10T05:51:58;101555.84;;;-7.23;100.00
75629;BME280;64213;46.452;16.994;2024-01-10T05:55:00;101558.34;;;-7.25;100.00
75629;BME280;64213;46.452;16.994;2024-01-10T05:58:05;101559.91;;;-7.30;100.00
75629;BME280;64213;46.452;16.994;2024-01-10T06:01:08;101567.53;;;-7.33;100.00
75629;BME280;64213;46.452;16.994;2024-01-10T06:04:13;101562.28;;;-7.36;100.00
75629;BME280;64213;46.452;16.994;2024-01-10T06:07:16;101557.34;;;-7.30;100.00
75629;BME280;64213;46.452;16.994;2024-01-10T06:10:19;101553.09;;;-7.28;100.00
75629;BME280;64213;46.452;16.994;2024-01-10T06:13:22;101550.84;;;-7.18;100.00
75629;BME280;64213;46.452;16.994;2024-01-10T06:16:24;101559.28;;;-7.22;100.00
75629;BME280;64213;46.452;16.994;2024-01-10T06:19:27;101560.06;;;-7.25;100.00
75629;BME280;64213;46.452;16.994;2024-01-10T06:22:30;101562.41;;;-7.31;100.00
75629;BME280;64213;46.452;16.994;2024-01-10T06:25:32;101558.94;;;-7.33;100.00
75629;BME280;64213;46.452;16.994;2024-01-10T06:28:35;101562.50;;;-7.30;100.00
75629;BME280;64213;46.452;16.994;2024-01-10T06:31:37;101566.88;;;-7.27;100.00
75629;BME280;64213;46.452;16.994;2024-01-10T06:34:40;101572.03;;;-7.26;100.00
75629;BME280;64213;46.452;16.994;2024-01-10T06:37:43;101541.31;;;-7.48;100.00
75629;BME280;64213;46.452;16.994;2024-01-10T06:40:46;101576.34;;;-7.25;100.00
75629;BME280;64213;46.452;16.994;2024-01-10T06:43:53;101569.37;;;-7.29;100.00
75629;BME280;64213;46.452;16.994;2024-01-10T06:46:57;101577.16;;;-7.27;100.00
75629;BME280;64213;46.452;16.994;2024-01-10T06:50:00;101582.31;;;-7.26;100.00
75629;BME280;64213;46.452;16.994;2024-01-10T06:53:03;101586.41;;;-7.31;100.00
75629;BME280;64213;46.452;16.994;2024-01-10T06:56:06;101591.66;;;-7.28;100.00
75629;BME280;64213;46.452;16.994;2024-01-10T06:59:09;101589.09;;;-7.28;100.00
75629;BME280;64213;46.452;16.994;2024-01-10T07:02:12;101592.47;;;-7.30;100.00
75629;BME280;64213;46.452;16.994;2024-01-10T07:05:15;101598.50;;;-7.28;100.00
75629;BME280;64213;46.452;16.994;2024-01-10T07:08:18;101600.31;;;-7.26;100.00
75629;BME280;64213;46.452;16.994;2024-01-10T07:11:20;101603.94;;;-7.20;100.00
75629;BME280;64213;46.452;16.994;2024-01-10T07:14:23;101607.28;;;-7.21;100.00
75629;BME280;64213;46.452;16.994;2024-01-10T07:17:25;101607.41;;;-7.18;100.00
75629;BME280;64213;46.452;16.994;2024-01-10T07:20:28;101611.88;;;-7.13;100.00
75629;BME280;64213;46.452;16.994;2024-01-10T07:23:31;101613.72;;;-7.09;100.00
75629;BME280;64213;46.452;16.994;2024-01-10T07:26:35;101612.19;;;-7.04;100.00
75629;BME280;64213;46.452;16.994;2024-01-10T07:29:38;101615.91;;;-6.95;100.00
75629;BME280;64213;46.452;16.994;2024-01-10T07:32:43;101616.91;;;-6.90;100.00
75629;BME280;64213;46.452;16.994;2024-01-10T07:35:46;101616.31;;;-6.82;100.00
75629;BME280;64213;46.452;16.994;2024-01-10T07:38:48;101618.31;;;-6.73;100.00
75629;BME280;64213;46.452;16.994;2024-01-10T07:41:51;101616.91;;;-6.63;100.00
75629;BME280;64213;46.452;16.994;2024-01-10T07:44:54;101610.34;;;-6.53;100.00
75629;BME280;64213;46.452;16.994;2024-01-10T07:47:56;101605.66;;;-6.38;100.00
75629;BME280;64213;46.452;16.994;2024-01-10T07:50:59;101595.63;;;-6.29;100.00
75629;BME280;64213;46.452;16.994;2024-01-10T07:54:02;101608.88;;;-6.17;100.00
75629;BME280;64213;46.452;16.994;2024-01-10T07:57:04;101609.13;;;-6.07;99.59
75629;BME280;64213;46.452;16.994;2024-01-10T08:00:09;101614.59;;;-5.97;99.12
75629;BME280;64213;46.452;16.994;2024-01-10T08:03:13;101606.37;;;-5.83;98.65
75629;BME280;64213;46.452;16.994;2024-01-10T08:06:16;101610.25;;;-5.66;97.75
75629;BME280;64213;46.452;16.994;2024-01-10T08:09:30;101606.47;;;-5.47;97.32
75629;BME280;64213;46.452;16.994;2024-01-10T08:12:33;101613.37;;;-5.13;96.24
75629;BME280;64213;46.452;16.994;2024-01-10T08:15:35;101604.62;;;-4.85;95.53
75629;BME280;64213;46.452;16.994;2024-01-10T08:18:37;101603.94;;;-4.78;93.73
75629;BME280;64213;46.452;16.994;2024-01-10T08:21:40;101611.12;;;-4.63;92.65
75629;BME280;64213;46.452;16.994;2024-01-10T08:24:42;101604.03;;;-4.35;92.02
75629;BME280;64213;46.452;16.994;2024-01-10T08:27:47;101610.38;;;-4.21;91.79
75629;BME280;64213;46.452;16.994;2024-01-10T08:30:50;101610.00;;;-3.99;90.92
75629;BME280;64213;46.452;16.994;2024-01-10T08:33:54;101616.47;;;-3.75;89.22
75629;BME280;64213;46.452;16.994;2024-01-10T08:36:57;101616.13;;;-3.48;88.97
75629;BME280;64213;46.452;16.994;2024-01-10T08:39:59;101616.22;;;-2.95;86.86
75629;BME280;64213;46.452;16.994;2024-01-10T08:43:03;101612.78;;;-2.39;84.52
75629;BME280;64213;46.452;16.994;2024-01-10T08:46:06;101622.59;;;-2.15;85.01
75629;BME280;64213;46.452;16.994;2024-01-10T08:49:09;101626.50;;;-1.81;82.69
75629;BME280;64213;46.452;16.994;2024-01-10T08:52:12;101622.22;;;-1.76;82.36
75629;BME280;64213;46.452;16.994;2024-01-10T08:55:15;101622.12;;;-1.83;83.16
75629;BME280;64213;46.452;16.994;2024-01-10T08:58:18;101622.88;;;-1.94;82.48
75629;BME280;64213;46.452;16.994;2024-01-10T09:01:20;101623.06;;;-1.77;81.81
75629;BME280;64213;46.452;16.994;2024-01-10T09:04:22;101634.47;;;-1.66;79.78
75629;BME280;64213;46.452;16.994;2024-01-10T09:07:25;101633.59;;;-1.65;80.90
75629;BME280;64213;46.452;16.994;2024-01-10T09:10:27;101625.09;;;-1.51;80.08
75629;BME280;64213;46.452;16.994;2024-01-10T09:13:31;101632.84;;;-1.56;80.18
75629;BME280;64213;46.452;16.994;2024-01-10T09:16:33;101630.50;;;-1.33;78.97
75629;BME280;64213;46.452;16.994;2024-01-10T09:19:36;101629.25;;;-1.67;80.97
75629;BME280;64213;46.452;16.994;2024-01-10T09:22:39;101624.59;;;-1.94;82.15
75629;BME280;64213;46.452;16.994;2024-01-10T09:25:41;101627.41;;;-1.77;80.92
75629;BME280;64213;46.452;16.994;2024-01-10T09:28:44;101622.66;;;-2.11;82.89
75629;BME280;64213;46.452;16.994;2024-01-10T09:31:46;101627.59;;;-1.60;81.60
75629;BME280;64213;46.452;16.994;2024-01-10T09:34:48;101619.81;;;-1.60;80.79
75629;BME280;64213;46.452;16.994;2024-01-10T09:37:51;101619.72;;;-1.67;80.64
75629;BME280;64213;46.452;16.994;2024-01-10T09:40:59;101617.66;;;-1.95;82.50
75629;BME280;64213;46.452;16.994;2024-01-10T09:44:05;101623.91;;;-1.79;81.29
75629;BME280;64213;46.452;16.994;2024-01-10T09:47:08;101624.00;;;-1.70;80.23
75629;BME280;64213;46.452;16.994;2024-01-10T09:50:11;101616.28;;;-1.67;78.42
75629;BME280;64213;46.452;16.994;2024-01-10T09:53:22;101616.34;;;-1.62;78.74
75629;BME280;64213;46.452;16.994;2024-01-10T09:56:26;101606.03;;;-1.53;78.53
75629;BME280;64213;46.452;16.994;2024-01-10T09:59:29;101602.63;;;-1.49;79.91
75629;BME280;64213;46.452;16.994;2024-01-10T10:02:31;101594.91;;;-1.42;79.04
75629;BME280;64213;46.452;16.994;2024-01-10T10:05:34;101600.16;;;-1.38;78.48
75629;BME280;64213;46.452;16.994;2024-01-10T10:08:37;101601.00;;;-1.38;79.56
75629;BME280;64213;46.452;16.994;2024-01-10T10:11:40;101594.12;;;-1.36;78.62
75629;BME280;64213;46.452;16.994;2024-01-10T10:14:43;101584.50;;;-1.46;79.54
75629;BME280;64213;46.452;16.994;2024-01-10T10:17:46;101582.94;;;-1.30;78.68
75629;BME280;64213;46.452;16.994;2024-01-10T10:21:09;101576.28;;;-0.96;77.41
75629;BME280;64213;46.452;16.994;2024-01-10T10:24:12;101569.88;;;-0.19;75.61
75629;BME280;64213;46.452;16.994;2024-01-10T10:27:19;101572.72;;;0.65;73.73
75629;BME280;64213;46.452;16.994;2024-01-10T10:30:22;101572.66;;;1.59;70.72
75629;BME280;64213;46.452;16.994;2024-01-10T10:33:25;101563.53;;;2.52;66.52
75629;BME280;64213;46.452;16.994;2024-01-10T10:36:30;101559.59;;;3.14;64.64
75629;BME280;64213;46.452;16.994;2024-01-10T10:39:33;101556.19;;;3.88;64.37
75629;BME280;64213;46.452;16.994;2024-01-10T10:42:39;101550.12;;;3.01;66.18
75629;BME280;64213;46.452;16.994;2024-01-10T10:45:46;101542.69;;;3.49;66.33
75629;BME280;64213;46.452;16.994;2024-01-10T10:48:50;101550.44;;;4.29;64.84
75629;BME280;64213;46.452;16.994;2024-01-10T10:51:55;101548.00;;;4.14;61.37
75629;BME280;64213;46.452;16.994;2024-01-10T10:54:59;101542.28;;;4.51;59.40
75629;BME280;64213;46.452;16.994;2024-01-10T10:58:03;101540.56;;;3.83;63.23
75629;BME280;64213;46.452;16.994;2024-01-10T11:01:13;101545.19;;;2.63;63.87
75629;BME280;64213;46.452;16.994;2024-01-10T11:04:18;101539.09;;;2.61;61.97
75629;BME280;64213;46.452;16.994;2024-01-10T11:07:21;101533.75;;;2.79;63.23
75629;BME280;64213;46.452;16.994;2024-01-10T11:10:28;101536.50;;;2.61;64.48
75629;BME280;64213;46.452;16.994;2024-01-10T11:23:49;101518.66;;;1.84;66.86
75629;BME280;64213;46.452;16.994;2024-01-10T11:27:13;101517.03;;;1.55;64.12
75629;BME280;64213;46.452;16.994;2024-01-10T11:30:33;101514.38;;;1.68;64.61
75629;BME280;64213;46.452;16.994;2024-01-10T11:33:39;101514.25;;;1.98;64.43
75629;BME280;64213;46.452;16.994;2024-01-10T11:37:11;101509.03;;;1.97;63.53
75629;BME280;64213;46.452;16.994;2024-01-10T11:40:14;101505.59;;;1.95;63.34
75629;BME280;64213;46.452;16.994;2024-01-10T11:43:17;101505.50;;;2.08;63.27
75629;BME280;64213;46.452;16.994;2024-01-10T11:46:20;101503.88;;;1.84;62.76
75629;BME280;64213;46.452;16.994;2024-01-10T11:49:25;101500.47;;;1.73;63.54
75629;BME280;64213;46.452;16.994;2024-01-10T11:52:37;101500.41;;;1.84;62.22
75629;BME280;64213;46.452;16.994;2024-01-10T11:55:51;101487.34;;;1.89;62.56
75629;BME280;64213;46.452;16.994;2024-01-10T11:59:01;101487.31;;;1.96;63.38
75629;BME280;64213;46.452;16.994;2024-01-10T12:02:06;101491.56;;;2.13;61.99
75629;BME280;64213;46.452;16.994;2024-01-10T12:05:09;101492.62;;;1.72;63.47
75629;BME280;64213;46.452;16.994;2024-01-10T12:08:11;101483.91;;;1.82;63.96
75629;BME280;64213;46.452;16.994;2024-01-10T12:11:14;101476.09;;;1.79;62.37
75629;BME280;64213;46.452;16.994;2024-01-10T12:14:18;101449.19;;;1.65;62.70
75629;BME280;64213;46.452;16.994;2024-01-10T12:17:27;101478.66;;;1.83;62.77
75629;BME280;64213;46.452;16.994;2024-01-10T12:20:29;101472.56;;;1.87;62.87
75629;BME280;64213;46.452;16.994;2024-01-10T12:23:31;101476.09;;;1.82;62.89
75629;BME280;64213;46.452;16.994;2024-01-10T12:26:34;101476.06;;;1.83;61.80
75629;BME280;64213;46.452;16.994;2024-01-10T12:29:38;101469.09;;;1.85;61.53
75629;BME280;64213;46.452;16.994;2024-01-10T12:32:42;101471.69;;;1.90;59.04
75629;BME280;64213;46.452;16.994;2024-01-10T12:35:44;101467.31;;;1.94;57.21
75629;BME280;64213;46.452;16.994;2024-01-10T12:39:03;101470.84;;;1.80;57.03
75629;BME280;64213;46.452;16.994;2024-01-10T12:42:09;101463.09;;;1.68;58.72
75629;BME280;64213;46.452;16.994;2024-01-10T12:45:23;101467.47;;;1.61;59.57
75629;BME280;64213;46.452;16.994;2024-01-10T12:48:26;101463.94;;;1.73;59.75
75629;BME280;64213;46.452;16.994;2024-01-10T12:51:29;101466.66;;;1.50;59.81
75629;BME280;64213;46.452;16.994;2024-01-10T12:54:32;101463.19;;;1.48;60.17
75629;BME280;64213;46.452;16.994;2024-01-10T12:57:35;101460.63;;;1.37;60.40
75629;BME280;64213;46.452;16.994;2024-01-10T13:00:37;101463.19;;;1.42;60.84
75629;BME280;64213;46.452;16.994;2024-01-10T13:03:41;101458.91;;;1.24;60.63
75629;BME280;64213;46.452;16.994;2024-01-10T13:06:44;101454.53;;;1.32;61.44
75629;BME280;64213;46.452;16.994;2024-01-10T13:09:47;101456.28;;;1.38;61.16
75629;BME280;64213;46.452;16.994;2024-01-10T13:12:49;101455.41;;;1.30;61.64
75629;BME280;64213;46.452;16.994;2024-01-10T13:15:52;101453.69;;;1.27;61.75
75629;BME280;64213;46.452;16.994;2024-01-10T13:18:56;101457.16;;;1.23;61.68
75629;BME280;64213;46.452;16.994;2024-01-10T13:22:00;101449.34;;;1.28;61.97
75629;BME280;64213;46.452;16.994;2024-01-10T13:25:08;101457.19;;;1.22;61.89
75629;BME280;64213;46.452;16.994;2024-01-10T13:28:10;101461.56;;;1.15;62.10
75629;BME280;64213;46.452;16.994;2024-01-10T13:31:15;101459.81;;;1.15;62.48
75629;BME280;64213;46.452;16.994;2024-01-10T13:34:18;101451.97;;;1.14;62.53
75629;BME280;64213;46.452;16.994;2024-01-10T13:37:21;101456.34;;;1.07;62.81
75629;BME280;64213;46.452;16.994;2024-01-10T13:40:24;101448.53;;;0.98;63.12
75629;BME280;64213;46.452;16.994;2024-01-10T13:43:28;101451.13;;;1.07;63.41
75629;BME280;64213;46.452;16.994;2024-01-10T13:46:31;101451.16;;;0.95;62.87
75629;BME280;64213;46.452;16.994;2024-01-10T13:49:33;101451.16;;;0.90;63.81
75629;BME280;64213;46.452;16.994;2024-01-10T13:52:36;101454.63;;;0.91;63.73
75629;BME280;64213;46.452;16.994;2024-01-10T13:55:38;101456.38;;;0.89;63.66
75629;BME280;64213;46.452;16.994;2024-01-10T13:58:41;101455.50;;;0.82;63.73
75629;BME280;64213;46.452;16.994;2024-01-10T14:01:43;101447.72;;;0.68;63.64
75629;BME280;64213;46.452;16.994;2024-01-10T14:04:46;101455.56;;;0.61;64.22
75629;BME280;64213;46.452;16.994;2024-01-10T14:07:49;101456.41;;;0.60;64.52
75629;BME280;64213;46.452;16.994;2024-01-10T14:10:51;101456.41;;;0.52;65.06
75629;BME280;64213;46.452;16.994;2024-01-10T14:13:55;101447.72;;;0.50;65.32
75629;BME280;64213;46.452;16.994;2024-01-10T14:16:57;101451.22;;;0.46;65.13
75629;BME280;64213;46.452;16.994;2024-01-10T14:20:00;101452.09;;;0.45;65.87
75629;BME280;64213;46.452;16.994;2024-01-10T14:23:03;101455.53;;;0.38;66.48
75629;BME280;64213;46.452;16.994;2024-01-10T14:26:05;101456.41;;;0.29;67.15
75629;BME280;64213;46.452;16.994;2024-01-10T14:29:08;101458.13;;;0.22;67.47
75629;BME280;64213;46.452;16.994;2024-01-10T14:32:11;101444.25;;;0.13;67.20
75629;BME280;64213;46.452;16.994;2024-01-10T14:35:19;101449.44;;;0.10;67.54
75629;BME280;64213;46.452;16.994;2024-01-10T14:38:22;101456.38;;;0.12;68.11
75629;BME280;64213;46.452;16.994;2024-01-10T14:41:25;101456.34;;;0.06;68.00
75629;BME280;64213;46.452;16.994;2024-01-10T14:44:28;101459.84;;;0.04;68.22
75629;BME280;64213;46.452;16.994;2024-01-10T14:47:30;101457.22;;;-0.06;68.51
75629;BME280;64213;46.452;16.994;2024-01-10T14:50:32;101458.06;;;-0.14;68.85
75629;BME280;64213;46.452;16.994;2024-01-10T14:53:35;101455.44;;;-0.22;69.92
75629;BME280;64213;46.452;16.994;2024-01-10T14:56:38;101459.75;;;-0.22;70.79
75629;BME280;64213;46.452;16.994;2024-01-10T14:59:44;101457.13;;;-0.30;70.19
75629;BME280;64213;46.452;16.994;2024-01-10T15:02:48;101460.56;;;-0.36;70.80
75629;BME280;64213;46.452;16.994;2024-01-10T15:05:51;101457.94;;;-0.45;71.10
75629;BME280;64213;46.452;16.994;2024-01-10T15:08:54;101456.16;;;-0.58;72.01
75629;BME280;64213;46.452;16.994;2024-01-10T15:11:57;101450.94;;;-0.64;71.85
75629;BME280;64213;46.452;16.994;2024-01-10T15:15:00;101450.91;;;-0.69;71.93
75629;BME280;64213;46.452;16.994;2024-01-10T15:18:03;101443.94;;;-0.79;72.59
75629;BME280;64213;46.452;16.994;2024-01-10T15:21:06;101451.66;;;-0.93;73.25
75629;BME280;64213;46.452;16.994;2024-01-10T15:24:08;101444.66;;;-1.08;74.02
75629;BME280;64213;46.452;16.994;2024-01-10T15:27:11;101442.84;;;-1.21;74.22
75629;BME280;64213;46.452;16.994;2024-01-10T15:30:14;101440.13;;;-1.35;74.94
75629;BME280;64213;46.452;16.994;2024-01-10T15:33:18;101444.34;;;-1.48;75.78
75629;BME280;64213;46.452;16.994;2024-01-10T15:36:20;101439.09;;;-1.58;76.64
75629;BME280;64213;46.452;16.994;2024-01-10T15:39:23;101444.19;;;-1.68;76.91
75629;BME280;64213;46.452;16.994;2024-01-10T15:42:27;101444.97;;;-1.78;77.28
75629;BME280;64213;46.452;16.994;2024-01-10T15:45:30;101442.34;;;-1.81;77.80
75629;BME280;64213;46.452;16.994;2024-01-10T15:48:36;101450.87;;;-1.93;79.35
75629;BME280;64213;46.452;16.994;2024-01-10T15:51:40;101450.81;;;-2.00;79.46
75629;BME280;64213;46.452;16.994;2024-01-10T15:54:43;101450.75;;;-2.06;79.80
75629;BME280;64213;46.452;16.994;2024-01-10T15:57:48;101454.94;;;-2.18;80.96